createdAt,value
2022-07-31T00:00:29.503Z,22.00
2022-07-31T00:02:59.717Z,21.97
2022-07-31T00:05:28.629Z,21.96
2022-07-31T00:07:56.956Z,21.93
2022-07-31T00:10:25.569Z,21.93
2022-07-31T00:12:54.109Z,21.91
2022-07-31T00:15:22.915Z,21.91
2022-07-31T00:17:51.850Z,21.89
2022-07-31T00:20:22.384Z,21.92
2022-07-31T00:22:50.950Z,21.94
2022-07-31T00:25:20.059Z,21.94
2022-07-31T00:27:48.561Z,21.93
2022-07-31T00:30:17.544Z,21.93
2022-07-31T00:32:46.674Z,21.92
2022-07-31T00:35:17.433Z,21.91
2022-07-31T00:37:47.318Z,21.92
2022-07-31T00:40:17.988Z,21.92
2022-07-31T00:42:46.909Z,21.92
2022-07-31T00:45:15.221Z,21.92
2022-07-31T00:47:44.747Z,21.92
2022-07-31T00:50:13.857Z,21.89
2022-07-31T00:52:44.140Z,21.86
2022-07-31T00:55:13.868Z,21.84
2022-07-31T00:57:43.546Z,21.79
2022-07-31T01:00:14.779Z,21.73
2022-07-31T01:02:46.279Z,21.65
2022-07-31T01:05:18.759Z,21.57
2022-07-31T01:07:48.798Z,21.48
2022-07-31T01:10:44.231Z,21.37
2022-07-31T01:13:21.563Z,21.31
2022-07-31T01:15:51.641Z,21.23
2022-07-31T01:18:20.685Z,21.18
2022-07-31T01:20:52.068Z,21.13
2022-07-31T01:23:55.076Z,21.05
2022-07-31T01:26:51.755Z,20.95
2022-07-31T01:29:28.274Z,20.86
2022-07-31T01:32:03.576Z,20.79
2022-07-31T01:34:41.068Z,20.71
2022-07-31T01:37:16.848Z,20.65
2022-07-31T01:39:53.240Z,20.61
2022-07-31T01:42:24.280Z,20.60
2022-07-31T01:45:01.073Z,20.57
2022-07-31T01:47:32.702Z,20.57
2022-07-31T01:50:04.783Z,20.56
2022-07-31T01:52:35.456Z,20.56
2022-07-31T01:55:06.030Z,20.56
2022-07-31T01:57:37.109Z,20.54
2022-07-31T02:00:33.448Z,20.52
2022-07-31T02:03:09.290Z,20.48
2022-07-31T02:05:41.997Z,20.43
2022-07-31T02:08:13.624Z,20.40
2022-07-31T02:10:46.616Z,20.35
2022-07-31T02:13:17.835Z,20.29
2022-07-31T02:15:49.214Z,20.24
2022-07-31T02:18:21.824Z,20.19
2022-07-31T02:21:11.800Z,20.15
2022-07-31T02:23:40.570Z,20.13
2022-07-31T02:26:10.039Z,20.09
2022-07-31T02:28:42.219Z,20.08
2022-07-31T02:31:15.568Z,20.06
2022-07-31T02:33:49.188Z,20.04
2022-07-31T02:36:19.160Z,20.02
2022-07-31T02:38:48.732Z,19.99
2022-07-31T02:41:19.256Z,19.96
2022-07-31T02:43:49.319Z,19.90
2022-07-31T02:46:24.223Z,19.82
2022-07-31T02:48:53.891Z,19.65
2022-07-31T02:51:25.433Z,19.50
2022-07-31T02:53:55.701Z,19.39
2022-07-31T02:56:27.106Z,19.28
2022-07-31T02:58:55.769Z,19.19
2022-07-31T03:01:28.947Z,19.09
2022-07-31T03:03:58.033Z,19.01
2022-07-31T03:06:29.314Z,18.96
2022-07-31T03:08:57.713Z,18.94
2022-07-31T03:11:26.771Z,18.91
2022-07-31T03:13:58.260Z,18.88
2022-07-31T03:16:29.446Z,18.86
2022-07-31T03:19:02.191Z,18.86
2022-07-31T03:21:31.872Z,18.85
2022-07-31T03:24:01.733Z,18.88
2022-07-31T03:26:32.125Z,18.92
2022-07-31T03:29:02.124Z,18.94
2022-07-31T03:31:31.997Z,18.95
2022-07-31T03:34:00.338Z,18.96
2022-07-31T03:36:30.570Z,18.96
2022-07-31T03:38:59.577Z,18.94
2022-07-31T03:41:44.469Z,18.93
2022-07-31T03:44:13.254Z,18.92
2022-07-31T03:46:43.221Z,18.95
2022-07-31T03:49:11.888Z,18.98
2022-07-31T03:51:40.889Z,19.03
2022-07-31T03:54:09.345Z,19.08
2022-07-31T03:56:49.477Z,19.12
2022-07-31T03:59:20.427Z,19.15
2022-07-31T04:01:57.977Z,19.19
2022-07-31T04:04:39.111Z,19.19
2022-07-31T04:07:07.765Z,19.14
2022-07-31T04:09:36.334Z,19.09
2022-07-31T04:12:07.620Z,19.07
2022-07-31T04:14:36.272Z,19.06
2022-07-31T04:17:06.704Z,19.07
2022-07-31T04:19:35.202Z,19.07
2022-07-31T04:22:05.221Z,19.09
2022-07-31T04:24:35.005Z,19.08
2022-07-31T04:27:22.055Z,19.09
2022-07-31T04:29:51.100Z,19.11
2022-07-31T04:32:24.025Z,19.16
2022-07-31T04:34:56.122Z,19.23
2022-07-31T04:37:24.617Z,19.29
2022-07-31T04:39:53.147Z,19.35
2022-07-31T04:42:21.794Z,19.41
2022-07-31T04:44:50.377Z,19.48
2022-07-31T04:47:18.828Z,19.54
2022-07-31T04:49:52.410Z,19.58
2022-07-31T04:52:20.780Z,19.65
2022-07-31T04:54:51.272Z,19.69
2022-07-31T04:57:21.929Z,19.72
2022-07-31T04:59:58.985Z,19.71
2022-07-31T05:02:30.157Z,19.67
2022-07-31T05:05:02.412Z,19.66
2022-07-31T05:07:40.071Z,19.69
2022-07-31T05:10:34.211Z,19.72
2022-07-31T05:13:03.159Z,19.73
2022-07-31T05:15:33.103Z,19.75
2022-07-31T05:18:01.705Z,19.78
2022-07-31T05:20:50.603Z,19.81
2022-07-31T05:23:29.322Z,19.83
2022-07-31T05:26:10.964Z,19.86
2022-07-31T05:28:40.288Z,19.90
2022-07-31T05:31:10.885Z,19.94
2022-07-31T05:33:39.509Z,20.01
2022-07-31T05:36:09.972Z,20.13
2022-07-31T05:38:38.372Z,20.23
2022-07-31T05:41:33.300Z,20.33
2022-07-31T05:44:20.422Z,20.38
2022-07-31T05:49:17.261Z,20.49
2022-07-31T05:51:54.236Z,20.57
2022-07-31T05:54:23.152Z,20.64
2022-07-31T05:57:10.093Z,20.69
2022-07-31T05:59:43.276Z,20.72
2022-07-31T06:02:12.552Z,20.75
2022-07-31T06:04:58.701Z,20.78
2022-07-31T06:07:30.599Z,20.78
2022-07-31T06:09:58.993Z,20.79
2022-07-31T06:12:27.428Z,20.85
2022-07-31T06:14:55.888Z,20.91
2022-07-31T06:17:44.079Z,21.04
2022-07-31T06:20:29.015Z,21.16
2022-07-31T06:22:59.185Z,21.27
2022-07-31T06:25:35.087Z,21.36
2022-07-31T06:28:10.608Z,21.46
2022-07-31T06:30:41.309Z,21.51
2022-07-31T06:33:17.217Z,21.54
2022-07-31T06:35:58.237Z,21.58
2022-07-31T06:38:40.194Z,21.62
2022-07-31T06:41:47.617Z,21.68
2022-07-31T06:44:45.843Z,21.73
2022-07-31T06:47:41.132Z,21.84
2022-07-31T06:50:32.003Z,21.97
2022-07-31T06:53:13.651Z,22.07
2022-07-31T06:55:44.448Z,22.19
2022-07-31T06:58:13.340Z,22.30
2022-07-31T07:00:41.780Z,22.44
2022-07-31T07:03:10.200Z,22.61
2022-07-31T07:05:40.958Z,22.73
2022-07-31T07:08:11.201Z,22.82
2022-07-31T07:10:39.542Z,22.88
2022-07-31T07:13:45.829Z,22.95
2022-07-31T07:16:18.649Z,22.98
2022-07-31T07:18:47.039Z,23.00
2022-07-31T07:21:15.489Z,23.06
2022-07-31T07:23:44.456Z,23.15
2022-07-31T07:26:20.084Z,23.19
2022-07-31T07:28:50.221Z,23.21
2022-07-31T07:31:19.632Z,23.30
2022-07-31T07:33:48.897Z,23.37
2022-07-31T07:36:22.663Z,23.46
2022-07-31T07:39:02.496Z,23.56
2022-07-31T07:41:33.012Z,23.64
2022-07-31T07:44:03.668Z,23.80
2022-07-31T07:46:32.404Z,23.99
2022-07-31T07:49:06.676Z,24.06
2022-07-31T07:51:59.102Z,24.11
2022-07-31T07:54:42.820Z,24.18
2022-07-31T07:57:24.037Z,24.23
2022-07-31T08:00:11.836Z,24.35
2022-07-31T08:03:47.440Z,24.46
2022-07-31T08:05:41.661Z,24.64
2022-07-31T08:08:11.107Z,24.90
2022-07-31T08:10:58.253Z,25.23
2022-07-31T08:13:36.331Z,25.42
2022-07-31T08:16:27.193Z,25.64
2022-07-31T08:18:58.652Z,25.92
2022-07-31T08:21:27.700Z,26.17
2022-07-31T08:23:56.455Z,26.31
2022-07-31T08:26:28.194Z,26.45
2022-07-31T08:28:57.676Z,26.55
2022-07-31T08:31:30.056Z,26.74
2022-07-31T08:34:31.069Z,26.94
2022-07-31T08:37:51.802Z,27.29
2022-07-31T08:39:51.700Z,27.40
2022-07-31T08:42:20.299Z,27.34
2022-07-31T08:44:48.704Z,27.36
2022-07-31T08:47:23.534Z,27.39
2022-07-31T08:49:53.777Z,27.34
2022-07-31T08:52:24.941Z,27.21
2022-07-31T08:54:59.756Z,27.08
2022-07-31T08:57:29.060Z,27.02
2022-07-31T08:59:57.823Z,27.08
2022-07-31T09:02:27.493Z,27.25
2022-07-31T09:05:25.180Z,27.59
2022-07-31T09:07:55.788Z,28.12
2022-07-31T09:10:26.920Z,28.94
2022-07-31T09:12:56.688Z,29.78
2022-07-31T09:15:29.982Z,30.56
2022-07-31T09:18:02.455Z,31.06
2022-07-31T09:20:32.788Z,31.33
2022-07-31T09:23:08.639Z,31.42
2022-07-31T09:25:41.800Z,31.08
2022-07-31T09:28:10.172Z,30.93
2022-07-31T09:30:56.204Z,30.87
2022-07-31T09:33:52.492Z,30.83
2022-07-31T09:37:08.235Z,30.81
2022-07-31T09:39:59.775Z,30.79
2022-07-31T09:42:48.561Z,30.69
2022-07-31T09:45:29.238Z,30.45
2022-07-31T09:48:05.807Z,30.36
2022-07-31T09:50:36.524Z,30.29
2022-07-31T09:53:06.633Z,30.12
2022-07-31T09:55:36.558Z,30.05
2022-07-31T09:58:05.573Z,29.93
2022-07-31T10:00:43.275Z,29.79
2022-07-31T10:03:17.588Z,29.73
2022-07-31T10:05:48.779Z,29.75
2022-07-31T10:08:18.823Z,29.76
2022-07-31T10:11:20.472Z,29.73
2022-07-31T10:14:01.416Z,29.84
2022-07-31T10:16:37.284Z,29.94
2022-07-31T10:19:33.144Z,29.91
2022-07-31T10:22:24.029Z,29.86
2022-07-31T10:24:55.021Z,29.78
2022-07-31T10:27:23.775Z,29.70
2022-07-31T10:30:02.300Z,29.62
2022-07-31T10:32:30.971Z,29.48
2022-07-31T10:35:22.513Z,29.33
2022-07-31T10:38:12.532Z,29.26
2022-07-31T10:41:13.356Z,29.23
2022-07-31T10:43:49.004Z,29.21
2022-07-31T10:46:29.823Z,29.11
2022-07-31T10:49:43.841Z,29.02
2022-07-31T10:52:33.432Z,28.97
2022-07-31T10:55:22.193Z,28.99
2022-07-31T10:58:11.421Z,29.01
2022-07-31T11:00:52.815Z,29.03
2022-07-31T11:03:49.662Z,29.10
2022-07-31T11:06:41.390Z,29.15
2022-07-31T11:09:30.249Z,29.19
2022-07-31T11:12:31.875Z,29.50
2022-07-31T11:15:24.408Z,30.27
2022-07-31T11:18:26.473Z,31.10
2022-07-31T11:21:36.031Z,31.33
2022-07-31T11:24:03.053Z,31.66
2022-07-31T11:26:41.282Z,32.03
2022-07-31T11:29:59.620Z,32.14
2022-07-31T11:32:12.547Z,32.53
2022-07-31T11:34:48.280Z,33.29
2022-07-31T11:37:20.549Z,34.03
2022-07-31T11:39:51.616Z,34.59
2022-07-31T11:42:27.757Z,35.01
2022-07-31T11:45:11.321Z,35.21
2022-07-31T11:48:12.915Z,35.17
2022-07-31T11:50:32.327Z,34.78
2022-07-31T11:53:06.940Z,34.62
2022-07-31T11:55:47.398Z,34.16
2022-07-31T11:58:16.985Z,33.79
2022-07-31T12:00:52.485Z,33.55
2022-07-31T12:03:23.334Z,33.64
2022-07-31T12:05:54.047Z,33.76
2022-07-31T12:08:25.394Z,33.43
2022-07-31T12:10:54.959Z,33.19
2022-07-31T12:13:25.587Z,32.94
2022-07-31T12:16:01.444Z,32.49
2022-07-31T12:18:31.165Z,32.41
2022-07-31T12:21:01.772Z,32.77
2022-07-31T12:23:41.904Z,33.27
2022-07-31T12:26:14.120Z,33.64
2022-07-31T12:28:43.639Z,33.73
2022-07-31T12:31:13.747Z,33.59
2022-07-31T12:33:43.642Z,33.77
2022-07-31T12:36:16.989Z,34.08
2022-07-31T12:38:48.344Z,34.42
2022-07-31T12:41:18.082Z,34.63
2022-07-31T12:43:51.927Z,35.17
2022-07-31T12:46:24.219Z,35.77
2022-07-31T12:48:52.537Z,36.24
2022-07-31T12:51:45.942Z,36.45
2022-07-31T12:54:10.255Z,36.36
2022-07-31T12:56:39.545Z,36.12
2022-07-31T12:59:09.231Z,36.00
2022-07-31T13:01:39.246Z,35.79
2022-07-31T13:04:18.917Z,35.91
2022-07-31T13:06:52.122Z,35.84
2022-07-31T13:09:21.132Z,35.75
2022-07-31T13:11:53.220Z,36.03
2022-07-31T13:14:24.513Z,36.30
2022-07-31T13:16:55.569Z,36.52
2022-07-31T13:19:24.007Z,36.75
2022-07-31T13:21:52.338Z,37.23
2022-07-31T13:24:25.286Z,37.59
2022-07-31T13:26:53.776Z,37.92
2022-07-31T13:29:22.164Z,37.60
2022-07-31T13:31:54.051Z,37.44
2022-07-31T13:34:22.412Z,37.37
2022-07-31T13:36:50.704Z,37.61
2022-07-31T13:39:19.096Z,37.94
2022-07-31T13:41:47.420Z,37.93
2022-07-31T13:44:16.764Z,38.04
2022-07-31T13:46:45.119Z,38.11
2022-07-31T13:49:15.525Z,37.73
2022-07-31T13:51:44.064Z,37.64
2022-07-31T13:54:12.953Z,37.91
2022-07-31T13:56:43.519Z,38.12
2022-07-31T13:59:14.203Z,38.39
2022-07-31T14:02:03.222Z,38.62
2022-07-31T14:04:38.269Z,38.79
2022-07-31T14:07:09.092Z,38.51
2022-07-31T14:09:37.929Z,37.75
2022-07-31T14:12:07.552Z,37.53
2022-07-31T14:14:37.956Z,37.75
2022-07-31T14:17:06.265Z,37.99
2022-07-31T14:19:44.224Z,38.48
2022-07-31T14:22:14.845Z,38.79
2022-07-31T14:24:50.060Z,38.92
2022-07-31T14:27:20.832Z,39.19
2022-07-31T14:29:49.382Z,39.30
2022-07-31T14:32:19.134Z,39.31
2022-07-31T14:34:49.104Z,39.54
2022-07-31T14:37:17.390Z,39.75
2022-07-31T14:39:45.922Z,39.85
2022-07-31T14:42:14.486Z,40.02
2022-07-31T14:44:43.059Z,40.53
2022-07-31T14:47:12.439Z,40.80
2022-07-31T14:50:09.279Z,40.86
2022-07-31T14:52:31.973Z,40.56
2022-07-31T14:55:01.634Z,40.50
2022-07-31T14:57:31.392Z,40.08
2022-07-31T14:59:59.880Z,39.00
2022-07-31T15:02:28.347Z,38.04
2022-07-31T15:04:56.768Z,37.30
2022-07-31T15:07:46.341Z,36.96
2022-07-31T15:10:15.409Z,36.44
2022-07-31T15:12:43.849Z,36.06
2022-07-31T15:15:12.723Z,35.61
2022-07-31T15:17:41.037Z,35.47
2022-07-31T15:20:10.819Z,35.53
2022-07-31T15:22:39.156Z,35.39
2022-07-31T15:25:09.473Z,35.92
2022-07-31T15:27:39.140Z,36.46
2022-07-31T15:30:08.953Z,36.48
2022-07-31T15:32:39.847Z,36.14
2022-07-31T15:35:12.359Z,35.58
2022-07-31T15:37:44.128Z,35.18
2022-07-31T15:40:15.523Z,34.93
2022-07-31T15:42:48.993Z,34.66
2022-07-31T15:45:19.639Z,34.42
2022-07-31T15:47:49.465Z,34.22
2022-07-31T15:50:20.167Z,34.63
2022-07-31T15:52:49.360Z,35.61
2022-07-31T15:55:19.658Z,36.68
2022-07-31T15:57:49.348Z,37.49
2022-07-31T16:00:18.381Z,37.96
2022-07-31T16:02:46.665Z,38.23
2022-07-31T16:05:21.552Z,38.57
2022-07-31T16:08:31.637Z,38.88
2022-07-31T16:10:54.946Z,39.35
2022-07-31T16:13:26.237Z,39.53
2022-07-31T16:15:54.924Z,39.56
2022-07-31T16:18:23.326Z,39.15
2022-07-31T16:20:51.743Z,38.35
2022-07-31T16:23:20.211Z,37.61
2022-07-31T16:25:48.623Z,36.85
2022-07-31T16:28:16.934Z,36.21
2022-07-31T16:30:46.779Z,35.62
2022-07-31T16:33:15.149Z,35.11
2022-07-31T16:35:43.452Z,34.66
2022-07-31T16:38:11.784Z,34.42
2022-07-31T16:40:40.429Z,34.51
2022-07-31T16:43:47.652Z,35.26
2022-07-31T16:45:58.735Z,36.11
2022-07-31T16:48:27.015Z,36.33
2022-07-31T16:50:55.451Z,36.62
2022-07-31T16:54:10.637Z,36.69
2022-07-31T16:56:13.718Z,36.86
2022-07-31T16:58:44.163Z,37.21
2022-07-31T17:01:57.350Z,37.48
2022-07-31T17:04:04.686Z,37.35
2022-07-31T17:06:36.327Z,37.50
2022-07-31T17:09:16.161Z,37.62
2022-07-31T17:11:48.656Z,37.78
2022-07-31T17:14:18.123Z,37.42
2022-07-31T17:16:49.781Z,36.52
2022-07-31T17:19:42.419Z,35.63
2022-07-31T17:22:11.128Z,34.81
2022-07-31T17:24:41.415Z,34.46
2022-07-31T17:27:10.823Z,34.47
2022-07-31T17:29:39.650Z,34.36
2022-07-31T17:32:11.129Z,34.21
2022-07-31T17:34:40.267Z,33.95
2022-07-31T17:37:09.024Z,33.67
2022-07-31T17:39:37.896Z,33.42
2022-07-31T17:42:06.609Z,33.17
2022-07-31T17:44:37.748Z,32.88
2022-07-31T17:47:10.087Z,32.65
2022-07-31T17:49:38.823Z,32.42
2022-07-31T17:52:07.626Z,32.24
2022-07-31T17:54:36.060Z,32.09
2022-07-31T17:57:05.336Z,31.94
2022-07-31T17:59:33.733Z,31.80
2022-07-31T18:02:03.692Z,31.65
2022-07-31T18:04:37.964Z,31.48
2022-07-31T18:07:09.030Z,31.31
2022-07-31T18:09:37.533Z,31.18
2022-07-31T18:12:07.582Z,31.05
2022-07-31T18:14:38.251Z,30.91
2022-07-31T18:17:07.114Z,30.79
2022-07-31T18:19:36.865Z,30.67
2022-07-31T18:22:05.531Z,30.58
2022-07-31T18:24:34.164Z,30.47
2022-07-31T18:27:02.497Z,30.36
2022-07-31T18:29:30.928Z,30.27
2022-07-31T18:31:59.278Z,30.16
2022-07-31T18:34:27.657Z,30.06
2022-07-31T18:36:57.385Z,29.96
2022-07-31T18:39:26.070Z,29.87
2022-07-31T18:41:54.601Z,29.79
2022-07-31T18:44:23.114Z,29.73
2022-07-31T18:46:51.614Z,29.66
2022-07-31T18:51:00.948Z,29.57
2022-07-31T18:52:11.224Z,29.45
2022-07-31T18:54:40.289Z,29.38
2022-07-31T18:57:09.066Z,29.30
2022-07-31T18:59:38.351Z,29.23
2022-07-31T19:02:11.482Z,29.16
2022-07-31T19:04:40.811Z,29.09
2022-07-31T19:07:10.507Z,29.03
2022-07-31T19:09:39.158Z,28.96
2022-07-31T19:12:08.924Z,28.93
2022-07-31T19:14:39.898Z,28.87
2022-07-31T19:17:08.609Z,28.81
2022-07-31T19:19:52.714Z,28.74
2022-07-31T19:22:28.040Z,28.65
2022-07-31T19:24:56.375Z,28.57
2022-07-31T19:27:46.978Z,28.48
2022-07-31T19:30:14.772Z,28.38
2022-07-31T19:32:43.235Z,28.29
2022-07-31T19:35:11.917Z,28.21
2022-07-31T19:37:41.560Z,28.13
2022-07-31T19:40:11.565Z,28.07
2022-07-31T19:42:40.428Z,27.99
2022-07-31T19:45:09.874Z,27.91
2022-07-31T19:47:38.249Z,27.86
2022-07-31T19:50:07.970Z,27.77
2022-07-31T19:52:36.260Z,27.71
2022-07-31T19:55:07.615Z,27.66
2022-07-31T19:57:36.188Z,27.59
2022-07-31T20:00:05.650Z,27.54
2022-07-31T20:02:34.015Z,27.49
2022-07-31T20:05:02.821Z,27.42
2022-07-31T20:07:33.098Z,27.37
2022-07-31T20:10:02.096Z,27.30
2022-07-31T20:12:31.774Z,27.23
2022-07-31T20:15:00.557Z,27.16
2022-07-31T20:17:29.267Z,27.10
2022-07-31T20:20:12.627Z,27.04
2022-07-31T20:22:44.446Z,26.96
2022-07-31T20:25:19.977Z,26.90
2022-07-31T20:27:50.915Z,26.82
2022-07-31T20:30:21.975Z,26.75
2022-07-31T20:32:51.472Z,26.70
2022-07-31T20:35:32.843Z,26.65
2022-07-31T20:38:09.036Z,26.58
2022-07-31T20:40:52.903Z,26.52
2022-07-31T20:43:25.239Z,26.46
2022-07-31T20:45:54.441Z,26.40
2022-07-31T20:48:24.481Z,26.35
2022-07-31T20:50:53.790Z,26.30
2022-07-31T20:53:23.040Z,26.25
2022-07-31T20:55:51.457Z,26.19
2022-07-31T20:58:20.198Z,26.13
2022-07-31T21:00:50.642Z,26.05
2022-07-31T21:03:19.581Z,25.99
2022-07-31T21:05:48.486Z,25.91
2022-07-31T21:08:17.512Z,25.81
2022-07-31T21:10:46.248Z,25.74
2022-07-31T21:13:14.741Z,25.68
2022-07-31T21:15:45.311Z,25.61
2022-07-31T21:18:16.672Z,25.55
2022-07-31T21:20:50.123Z,25.49
2022-07-31T21:23:22.814Z,25.40
2022-07-31T21:25:52.468Z,25.35
2022-07-31T21:28:21.659Z,25.29
2022-07-31T21:30:50.533Z,25.23
2022-07-31T21:33:20.442Z,25.17
2022-07-31T21:35:49.448Z,25.12
2022-07-31T21:38:18.528Z,25.08
2022-07-31T21:40:48.243Z,25.05
2022-07-31T21:43:22.185Z,25.03
2022-07-31T21:45:57.552Z,25.01
2022-07-31T21:48:35.552Z,25.00
2022-07-31T21:51:04.792Z,24.99
2022-07-31T21:53:33.073Z,24.99
2022-07-31T21:56:03.748Z,24.97
2022-07-31T21:58:32.065Z,24.94
2022-07-31T22:01:00.501Z,24.92
2022-07-31T22:03:28.847Z,24.90
2022-07-31T22:06:15.956Z,24.86
2022-07-31T22:08:44.932Z,24.81
2022-07-31T22:11:13.341Z,24.75
2022-07-31T22:13:41.832Z,24.73
2022-07-31T22:16:10.358Z,24.68
2022-07-31T22:18:39.241Z,24.65
2022-07-31T22:21:09.932Z,24.61
2022-07-31T22:23:39.073Z,24.54
2022-07-31T22:26:08.287Z,24.50
2022-07-31T22:28:37.005Z,24.44
2022-07-31T22:31:05.932Z,24.39
2022-07-31T22:33:34.434Z,24.36
2022-07-31T22:36:07.057Z,24.33
2022-07-31T22:38:37.984Z,24.30
2022-07-31T22:41:06.636Z,24.28
2022-07-31T22:44:11.626Z,24.26
2022-07-31T22:46:23.782Z,24.19
2022-07-31T22:48:53.688Z,24.17
2022-07-31T22:51:22.198Z,24.11
2022-07-31T22:53:52.025Z,24.07
2022-07-31T22:56:20.844Z,24.05
2022-07-31T22:58:49.110Z,24.02
2022-07-31T23:01:17.500Z,24.02
2022-07-31T23:03:45.880Z,24.01
2022-07-31T23:06:30.867Z,24.00
2022-07-31T23:09:02.621Z,23.99
2022-07-31T23:11:31.147Z,23.98
2022-07-31T23:13:59.573Z,23.99
2022-07-31T23:16:28.121Z,23.99
2022-07-31T23:18:56.696Z,24.00
2022-07-31T23:21:25.546Z,24.02
2022-07-31T23:23:53.980Z,24.02
2022-07-31T23:26:26.188Z,24.01
2022-07-31T23:28:56.832Z,24.00
2022-07-31T23:31:25.721Z,23.99
2022-07-31T23:33:55.208Z,23.98
2022-07-31T23:36:23.956Z,23.96
2022-07-31T23:38:53.132Z,23.97
2022-07-31T23:41:36.755Z,23.96
2022-07-31T23:44:05.683Z,23.95
2022-07-31T23:46:40.429Z,23.94
2022-07-31T23:49:09.709Z,23.94
2022-07-31T23:51:38.172Z,23.92
2022-07-31T23:54:07.617Z,23.93
2022-07-31T23:56:37.228Z,23.93
2022-07-31T23:59:05.683Z,23.91
